Time,TemperatureF,DewpointF,PressureIn,WindDirection,WindDirectionDegrees,WindSpeedMPH,WindSpeedGustMPH,Humidity,HourlyPrecipIn,Conditions,Clouds,dailyrainin,SoftwareType,DateUTC
2013-03-17 00:11:00,30.0,24.3,29.98,North,0,7.3,-999.0,79,-99.99,,,0.00,Acu-Link.com,2013-03-17 05:11:00,
2013-03-17 00:26:00,29.8,24.4,29.96,ENE,67,10.4,-999.0,80,-99.99,,,0.00,Acu-Link.com,2013-03-17 05:26:00,
2013-03-17 00:56:00,29.1,24.0,29.95,ENE,67,7.3,-999.0,81,-99.99,,,0.00,Acu-Link.com,2013-03-17 05:56:00,
2013-03-17 01:11:00,28.9,23.8,29.96,NE,45,10.4,-999.0,81,-99.99,,,0.00,Acu-Link.com,2013-03-17 06:11:00,
2013-03-17 01:26:00,28.8,23.7,29.94,ENE,67,10.9,-999.0,81,-99.99,,,0.00,Acu-Link.com,2013-03-17 06:26:00,
2013-03-17 01:41:00,28.6,23.5,29.93,ENE,67,8.9,-999.0,81,-99.99,,,0.00,Acu-Link.com,2013-03-17 06:41:00,
2013-03-17 02:12:00,28.0,23.2,29.93,ENE,67,7.3,-999.0,82,-99.99,,,0.00,Acu-Link.com,2013-03-17 07:12:00,
2013-03-17 02:27:00,28.0,22.9,29.93,ENE,67,11.4,-999.0,81,-99.99,,,0.00,Acu-Link.com,2013-03-17 07:27:00,
2013-03-17 02:42:00,27.7,22.9,29.92,ENE,67,12.5,-999.0,82,-99.99,,,0.00,Acu-Link.com,2013-03-17 07:42:00,
2013-03-17 02:57:00,27.7,22.9,29.93,ENE,67,10.9,-999.0,82,-99.99,,,0.00,Acu-Link.com,2013-03-17 07:57:00,
2013-03-17 03:12:00,27.5,22.4,29.93,ENE,67,11.4,-999.0,81,-99.99,,,0.00,Acu-Link.com,2013-03-17 08:12:00,
2013-03-17 03:27:00,27.3,22.3,29.92,East,90,11.4,-999.0,81,-99.99,,,0.00,Acu-Link.com,2013-03-17 08:27:00,
2013-03-17 03:42:00,27.1,22.3,29.90,ENE,67,8.9,-999.0,82,-99.99,,,0.00,Acu-Link.com,2013-03-17 08:42:00,
2013-03-17 03:58:00,26.6,22.1,29.90,ENE,67,10.9,-999.0,83,-99.99,,,0.00,Acu-Link.com,2013-03-17 08:58:00,
2013-03-17 04:13:00,26.6,22.1,29.89,ENE,67,10.4,-999.0,83,-99.99,,,0.00,Acu-Link.com,2013-03-17 09:13:00,
2013-03-17 04:28:00,26.2,21.8,29.88,East,90,9.4,-999.0,83,-99.99,,,0.00,Acu-Link.com,2013-03-17 09:28:00,
2013-03-17 04:43:00,26.1,21.7,29.89,ENE,67,6.8,-999.0,83,-99.99,,,0.00,Acu-Link.com,2013-03-17 09:43:00,
2013-03-17 04:58:00,26.1,21.7,29.89,ENE,67,14.0,-999.0,83,-99.99,,,0.00,Acu-Link.com,2013-03-17 09:58:00,
2013-03-17 05:14:00,26.1,21.7,29.89,East,90,10.9,-999.0,83,-99.99,,,0.00,Acu-Link.com,2013-03-17 10:14:00,
2013-03-17 05:29:00,25.9,21.7,29.90,ENE,67,9.4,-999.0,84,-99.99,,,0.00,Acu-Link.com,2013-03-17 10:29:00,
2013-03-17 05:44:00,25.9,21.5,29.90,ENE,67,10.4,-999.0,83,-99.99,,,0.00,Acu-Link.com,2013-03-17 10:44:00,
2013-03-17 05:59:00,25.7,21.3,29.90,East,90,7.8,-999.0,83,-99.99,,,0.00,Acu-Link.com,2013-03-17 10:59:00,
2013-03-17 06:14:00,25.3,21.2,29.89,ENE,67,9.4,-999.0,84,-99.99,,,0.00,Acu-Link.com,2013-03-17 11:14:00,
2013-03-17 06:29:00,25.3,21.2,29.89,East,90,7.3,-999.0,84,-99.99,,,0.00,Acu-Link.com,2013-03-17 11:29:00,
2013-03-17 06:44:00,25.2,21.3,29.88,ENE,67,9.9,-999.0,85,-99.99,,,0.00,Acu-Link.com,2013-03-17 11:44:00,
2013-03-17 07:00:00,25.0,21.1,29.88,East,90,9.9,-999.0,85,-99.99,,,0.00,Acu-Link.com,2013-03-17 12:00:00,
2013-03-17 07:15:00,25.0,21.4,29.87,East,90,10.9,-999.0,86,-99.99,,,0.00,Acu-Link.com,2013-03-17 12:15:00,
2013-03-17 07:30:00,24.8,21.2,29.89,East,90,7.8,-999.0,86,-99.99,,,0.00,Acu-Link.com,2013-03-17 12:30:00,
2013-03-17 07:45:00,24.8,21.2,29.89,ENE,67,7.8,-999.0,86,-99.99,,,0.00,Acu-Link.com,2013-03-17 12:45:00,
2013-03-17 08:00:00,25.0,21.4,29.90,East,90,5.8,-999.0,86,-99.99,,,0.00,Acu-Link.com,2013-03-17 13:00:00,
2013-03-17 08:15:00,25.3,21.7,29.90,ENE,67,8.9,-999.0,86,-99.99,,,0.00,Acu-Link.com,2013-03-17 13:15:00,
2013-03-17 08:30:00,25.7,21.5,29.90,East,90,5.3,-999.0,84,-99.99,,,0.00,Acu-Link.com,2013-03-17 13:30:00,
2013-03-17 08:45:00,26.4,21.7,29.90,East,90,10.9,-999.0,82,-99.99,,,0.00,Acu-Link.com,2013-03-17 13:45:00,
2013-03-17 09:00:00,27.0,22.0,29.89,ESE,112,13.5,-999.0,81,-99.99,,,0.00,Acu-Link.com,2013-03-17 14:00:00,
2013-03-17 09:15:00,27.0,22.0,29.90,ESE,112,13.0,-999.0,81,-99.99,,,0.00,Acu-Link.com,2013-03-17 14:15:00,
2013-03-17 09:30:00,28.2,22.2,29.90,East,90,11.9,-999.0,78,-99.99,,,0.00,Acu-Link.com,2013-03-17 14:30:00,
2013-03-17 09:45:00,28.8,22.2,29.90,ESE,112,9.9,-999.0,76,-99.99,,,0.00,Acu-Link.com,2013-03-17 14:45:00,
2013-03-17 10:01:00,29.1,22.2,29.89,ESE,112,10.4,-999.0,75,-99.99,,,0.00,Acu-Link.com,2013-03-17 15:01:00,
2013-03-17 10:31:00,30.4,22.5,29.88,ESE,112,10.4,-999.0,72,-99.99,,,0.00,Acu-Link.com,2013-03-17 15:31:00,
2013-03-17 10:46:00,31.8,23.2,29.86,ESE,112,17.6,-999.0,70,-99.99,,,0.00,Acu-Link.com,2013-03-17 15:46:00,
2013-03-17 11:01:00,32.4,23.0,29.85,East,90,14.5,-999.0,68,-99.99,,,0.00,Acu-Link.com,2013-03-17 16:01:00,
2013-03-17 11:16:00,33.4,23.3,29.84,East,90,11.4,-999.0,66,-99.99,,,0.00,Acu-Link.com,2013-03-17 16:16:00,
2013-03-17 11:32:00,34.5,23.6,29.84,ESE,112,8.9,-999.0,64,-99.99,,,0.00,Acu-Link.com,2013-03-17 16:32:00,
2013-03-17 11:47:00,35.8,24.8,29.83,SE,135,13.0,-999.0,64,-99.99,,,0.00,Acu-Link.com,2013-03-17 16:47:00,
2013-03-17 12:02:00,36.5,25.1,29.82,SSE,157,10.9,-999.0,63,-99.99,,,0.00,Acu-Link.com,2013-03-17 17:02:00,
2013-03-17 12:17:00,37.8,25.2,29.81,ESE,112,9.4,-999.0,60,-99.99,,,0.00,Acu-Link.com,2013-03-17 17:17:00,
2013-03-17 12:32:00,37.9,25.3,29.80,ESE,112,7.3,-999.0,60,-99.99,,,0.00,Acu-Link.com,2013-03-17 17:32:00,
2013-03-17 12:47:00,39.0,26.3,29.78,ESE,112,11.9,-999.0,60,-99.99,,,0.00,Acu-Link.com,2013-03-17 17:47:00,
2013-03-17 13:03:00,40.1,26.9,29.76,East,90,15.5,-999.0,59,-99.99,,,0.00,Acu-Link.com,2013-03-17 18:03:00,
2013-03-17 13:18:00,40.3,27.1,29.75,ESE,112,18.1,-999.0,59,-99.99,,,0.00,Acu-Link.com,2013-03-17 18:18:00,
2013-03-17 13:33:00,41.4,28.6,29.74,SE,135,13.0,-999.0,60,-99.99,,,0.00,Acu-Link.com,2013-03-17 18:33:00,
2013-03-17 13:48:00,41.5,28.3,29.73,ESE,112,16.6,-999.0,59,-99.99,,,0.00,Acu-Link.com,2013-03-17 18:48:00,
2013-03-17 14:03:00,42.3,28.6,29.72,ESE,112,10.4,-999.0,58,-99.99,,,0.00,Acu-Link.com,2013-03-17 19:03:00,
2013-03-17 14:18:00,42.3,29.0,29.72,SSE,157,11.4,-999.0,59,-99.99,,,0.00,Acu-Link.com,2013-03-17 19:18:00,
2013-03-17 14:50:00,44.6,30.7,29.70,SE,135,10.9,-999.0,58,-99.99,,,0.00,Acu-Link.com,2013-03-17 19:50:00,
2013-03-17 15:05:00,45.0,30.7,29.69,ESE,112,8.9,-999.0,57,-99.99,,,0.00,Acu-Link.com,2013-03-17 20:05:00,
2013-03-17 15:51:00,46.0,31.2,29.65,ESE,112,10.4,-999.0,56,-99.99,,,0.00,Acu-Link.com,2013-03-17 20:51:00,
2013-03-17 16:06:00,47.5,31.7,29.63,ESE,112,15.0,-999.0,54,-99.99,,,0.00,Acu-Link.com,2013-03-17 21:06:00,
2013-03-17 16:21:00,46.4,31.6,29.63,ESE,112,14.0,-999.0,56,-99.99,,,0.00,Acu-Link.com,2013-03-17 21:21:00,
2013-03-17 16:36:00,47.7,31.9,29.61,ESE,112,15.0,-999.0,54,-99.99,,,0.00,Acu-Link.com,2013-03-17 21:36:00,
2013-03-17 16:51:00,47.5,31.7,29.60,ESE,112,13.0,-999.0,54,-99.99,,,0.00,Acu-Link.com,2013-03-17 21:51:00,
2013-03-17 17:22:00,47.8,31.5,29.59,ESE,112,16.1,-999.0,53,-99.99,,,0.00,Acu-Link.com,2013-03-17 22:22:00,
2013-03-17 17:37:00,47.1,30.9,29.57,ESE,112,11.9,-999.0,53,-99.99,,,0.00,Acu-Link.com,2013-03-17 22:37:00,
2013-03-17 17:52:00,45.1,30.8,29.58,ESE,112,12.5,-999.0,57,-99.99,,,0.00,Acu-Link.com,2013-03-17 22:52:00,
2013-03-17 18:07:00,44.4,31.0,29.57,ESE,112,13.5,-999.0,59,-99.99,,,0.00,Acu-Link.com,2013-03-17 23:07:00,
2013-03-17 18:22:00,43.3,30.8,29.57,SE,135,12.5,-999.0,61,-99.99,,,0.00,Acu-Link.com,2013-03-17 23:22:00,
2013-03-17 18:37:00,42.6,30.5,29.57,ESE,112,13.5,-999.0,62,-99.99,,,0.00,Acu-Link.com,2013-03-17 23:37:00,
2013-03-17 18:52:00,42.3,31.0,29.58,ESE,112,11.9,-999.0,64,-99.99,,,0.00,Acu-Link.com,2013-03-17 23:52:00,
2013-03-17 19:07:00,41.5,31.0,29.57,ESE,112,13.0,-999.0,66,-99.99,,,0.00,Acu-Link.com,2013-03-18 00:07:00,
2013-03-17 19:22:00,40.6,30.9,29.57,ESE,112,17.1,-999.0,68,-99.99,,,0.00,Acu-Link.com,2013-03-18 00:22:00,
2013-03-17 19:37:00,39.7,30.7,29.57,SSE,157,13.5,-999.0,70,-99.99,,,0.00,Acu-Link.com,2013-03-18 00:37:00,
2013-03-17 19:53:00,39.4,31.1,29.59,SE,135,12.5,-999.0,72,-99.99,,,0.00,Acu-Link.com,2013-03-18 00:53:00,
2013-03-17 20:08:00,38.5,30.6,29.58,SE,135,16.6,-999.0,73,-99.99,,,0.00,Acu-Link.com,2013-03-18 01:08:00,
2013-03-17 20:23:00,37.9,30.7,29.59,SE,135,13.0,-999.0,75,-99.99,,,0.00,Acu-Link.com,2013-03-18 01:23:00,
2013-03-17 20:38:00,36.9,31.0,29.60,ESE,112,11.4,-999.0,79,-99.99,,,0.00,Acu-Link.com,2013-03-18 01:38:00,
2013-03-17 20:53:00,36.1,30.8,29.61,ESE,112,14.5,-999.0,81,-99.99,,,0.00,Acu-Link.com,2013-03-18 01:53:00,
2013-03-17 21:08:00,35.6,31.0,29.61,ESE,112,10.4,-999.0,83,-99.99,,,0.00,Acu-Link.com,2013-03-18 02:08:00,
2013-03-17 21:23:00,35.2,30.9,29.61,ESE,112,10.9,-999.0,84,-99.99,,,0.00,Acu-Link.com,2013-03-18 02:23:00,
2013-03-17 21:38:00,35.2,30.9,29.62,ESE,112,6.3,-999.0,84,-99.99,,,0.00,Acu-Link.com,2013-03-18 02:38:00,
2013-03-17 21:53:00,35.1,30.8,29.61,ESE,112,5.3,-999.0,84,-99.99,,,0.00,Acu-Link.com,2013-03-18 02:53:00,
2013-03-17 22:09:00,35.1,30.8,29.63,SE,135,2.2,-999.0,84,-99.99,,,0.00,Acu-Link.com,2013-03-18 03:09:00,
2013-03-17 22:24:00,35.1,30.8,29.64,ESE,112,2.7,-999.0,84,-99.99,,,0.00,Acu-Link.com,2013-03-18 03:24:00,
2013-03-17 22:39:00,34.9,30.6,29.63,ESE,112,4.7,-999.0,84,-99.99,,,0.00,Acu-Link.com,2013-03-18 03:39:00,
2013-03-17 22:55:00,34.7,30.7,29.64,East,90,3.2,-999.0,85,-99.99,,,0.00,Acu-Link.com,2013-03-18 03:55:00,
2013-03-17 23:10:00,34.3,30.6,29.63,East,90,5.3,-999.0,86,-99.99,,,0.00,Acu-Link.com,2013-03-18 04:10:00,
2013-03-17 23:25:00,34.2,30.7,29.62,ESE,112,5.3,-999.0,87,-99.99,,,0.00,Acu-Link.com,2013-03-18 04:25:00,
2013-03-17 23:40:00,34.3,30.6,29.61,ESE,112,8.9,-999.0,86,-99.99,,,0.00,Acu-Link.com,2013-03-18 04:40:00,
2013-03-17 23:55:00,34.3,30.8,29.60,SE,135,5.8,-999.0,87,-99.99,,,0.00,Acu-Link.com,2013-03-18 04:55:00,